PWSweather.com
Personal Weather Stations
Station Observations
IHTIMAN1
Neighbourhood 1, IhtimanBG 2050

Neighbourhood 1IhtimanBG 2050

Lat: 42.436852, Lon: 23.817921

Elevation: 2066

Station Type: Oregon Scientific WMR968

http://ihtiman-meteo.com

High Low Average
Temperature 75.6°F24.2°C 48.9°F9.4°C 59.6°F15.3°C
Dew Point 57.8°F14.3°C 40.3°F4.6°C 48.8°F9.3°C
Winds 10.4 mph 16.7 kmh Calm Calm 2.0 mph SW3.2 kmh SW
Wind Gusts 13.8 mph22.2 kmh -- 2.0 mph3.2 kmh
Humidity 97% 37% 71%
Pressure 29.86 in1011.2 mb 29.74 in1007.1 mb -
Precipitation 0.14 in3.6 mm - -
Hour Temp Dew Point Humidity Winds Wind Gusts Pressure Precip Precip Rate Daily Precip Total
12:00 AM 63.5°F17.5°C 41.8°F5.4°C 45% 3.5 mph SSE5.6 kmh SSE 3.5 mph5.6 kmh 29.74 in1007.1 mb - 0.00 in0.0 mm 0.00 in0.0 mm
12:10 AM 63.5°F17.5°C 41.8°F5.4°C 45% 2.3 mph SSE3.7 kmh SSE 5.8 mph9.3 kmh 29.74 in1007.1 mb - 0.00 in0.0 mm 0.00 in0.0 mm
12:20 AM 63.5°F17.5°C 41.8°F5.4°C 45% 2.3 mph WSW3.7 kmh WSW 4.6 mph7.4 kmh 29.74 in1007.1 mb - 0.00 in0.0 mm 0.00 in0.0 mm
12:30 AM 63.5°F17.5°C 41.8°F5.4°C 45% Calm Calm -- 29.74 in1007.1 mb - 0.00 in0.0 mm 0.00 in0.0 mm
12:40 AM 63.5°F17.5°C 41.8°F5.4°C 45% 2.3 mph WNW3.7 kmh WNW 3.5 mph5.6 kmh 29.74 in1007.1 mb - 0.00 in0.0 mm 0.00 in0.0 mm
12:50 AM 58.3°F14.6°C 40.3°F4.6°C 51% Calm Calm 3.5 mph5.6 kmh 29.74 in1007.1 mb - 0.00 in0.0 mm 0.00 in0.0 mm
01:00 AM 57.2°F14.0°C 42.1°F5.6°C 57% 2.3 mph WNW3.7 kmh WNW 3.5 mph5.6 kmh 29.74 in1007.1 mb - 0.00 in0.0 mm 0.00 in0.0 mm
01:10 AM 56.3°F13.5°C 43.4°F6.3°C 62% 4.6 mph NW7.4 kmh NW 5.8 mph9.3 kmh 29.74 in1007.1 mb - 0.00 in0.0 mm 0.00 in0.0 mm
01:20 AM 55.6°F13.1°C 44.0°F6.7°C 65% 2.3 mph NW3.7 kmh NW 3.5 mph5.6 kmh 29.74 in1007.1 mb - 0.00 in0.0 mm 0.00 in0.0 mm
01:30 AM 55.6°F13.1°C 44.0°F6.7°C 65% 2.3 mph NW3.7 kmh NW 5.8 mph9.3 kmh 29.74 in1007.1 mb - 0.00 in0.0 mm 0.00 in0.0 mm
01:40 AM 54.9°F12.7°C 45.3°F7.4°C 70% 2.3 mph NNW3.7 kmh NNW 3.5 mph5.6 kmh 29.74 in1007.1 mb - 0.00 in0.0 mm 0.00 in0.0 mm
01:50 AM 54.9°F12.7°C 45.6°F7.6°C 71% 1.2 mph NW1.9 kmh NW -- 29.74 in1007.1 mb - 0.00 in0.0 mm 0.00 in0.0 mm
02:00 AM 54.9°F12.7°C 45.6°F7.6°C 71% Calm Calm -- 29.74 in1007.1 mb - 0.00 in0.0 mm 0.00 in0.0 mm
02:10 AM 54.0°F12.2°C 45.5°F7.5°C 73% Calm Calm -- 29.74 in1007.1 mb - 0.00 in0.0 mm 0.00 in0.0 mm
02:20 AM 54.0°F12.2°C 45.5°F7.5°C 73% Calm Calm -- 29.74 in1007.1 mb - 0.00 in0.0 mm 0.00 in0.0 mm
02:30 AM 54.0°F12.2°C 45.5°F7.5°C 73% Calm Calm -- 29.74 in1007.1 mb - 0.00 in0.0 mm 0.00 in0.0 mm
02:40 AM 54.0°F12.2°C 45.5°F7.5°C 73% Calm Calm -- 29.74 in1007.1 mb - 0.00 in0.0 mm 0.00 in0.0 mm
02:50 AM 54.0°F12.2°C 45.5°F7.5°C 73% Calm Calm -- 29.74 in1007.1 mb - 0.00 in0.0 mm 0.00 in0.0 mm
03:00 AM 52.2°F11.2°C 45.2°F7.3°C 77% Calm Calm -- 29.74 in1007.1 mb - 0.00 in0.0 mm 0.00 in0.0 mm
03:10 AM 52.2°F11.2°C 45.5°F7.5°C 78% Calm Calm -- 29.74 in1007.1 mb - 0.00 in0.0 mm 0.00 in0.0 mm
03:20 AM 52.2°F11.2°C 45.5°F7.5°C 78% Calm Calm -- 29.77 in1008.1 mb - 0.00 in0.0 mm 0.00 in0.0 mm
03:30 AM 52.2°F11.2°C 45.5°F7.5°C 78% Calm Calm -- 29.77 in1008.1 mb - 0.00 in0.0 mm 0.00 in0.0 mm
03:40 AM 52.0°F11.1°C 46.7°F8.2°C 82% Calm Calm -- 29.77 in1008.1 mb - 0.00 in0.0 mm 0.00 in0.0 mm
03:50 AM 52.0°F11.1°C 46.7°F8.2°C 82% Calm Calm -- 29.77 in1008.1 mb - 0.00 in0.0 mm 0.00 in0.0 mm
04:00 AM 52.0°F11.1°C 46.6°F8.1°C 82% Calm Calm -- 29.77 in1008.1 mb - 0.00 in0.0 mm 0.00 in0.0 mm
04:10 AM 51.8°F11.0°C 46.8°F8.2°C 83% Calm Calm -- 29.77 in1008.1 mb - 0.00 in0.0 mm 0.00 in0.0 mm
04:20 AM 51.8°F11.0°C 46.8°F8.2°C 83% Calm Calm -- 29.77 in1008.1 mb - 0.00 in0.0 mm 0.00 in0.0 mm
04:30 AM 51.8°F11.0°C 47.1°F8.4°C 84% Calm Calm -- 29.77 in1008.1 mb - 0.00 in0.0 mm 0.00 in0.0 mm
04:40 AM 51.8°F11.0°C 47.1°F8.4°C 84% Calm Calm -- 29.77 in1008.1 mb - 0.00 in0.0 mm 0.00 in0.0 mm
04:50 AM 51.8°F11.0°C 47.1°F8.4°C 84% Calm Calm -- 29.77 in1008.1 mb - 0.00 in0.0 mm 0.00 in0.0 mm
05:00 AM 50.9°F10.5°C 46.2°F7.9°C 84% Calm Calm -- 29.77 in1008.1 mb - 0.00 in0.0 mm 0.00 in0.0 mm
05:10 AM 50.7°F10.4°C 46.4°F8.0°C 85% Calm Calm -- 29.77 in1008.1 mb - 0.00 in0.0 mm 0.00 in0.0 mm
05:20 AM 50.5°F10.3°C 46.2°F7.9°C 85% Calm Calm -- 29.77 in1008.1 mb - 0.00 in0.0 mm 0.00 in0.0 mm
05:30 AM 50.5°F10.3°C 46.5°F8.1°C 86% Calm Calm -- 29.77 in1008.1 mb - 0.00 in0.0 mm 0.00 in0.0 mm
05:40 AM 50.8°F10.4°C 47.1°F8.4°C 87% Calm Calm -- 29.77 in1008.1 mb - 0.00 in0.0 mm 0.00 in0.0 mm
05:50 AM 51.3°F10.7°C 47.9°F8.8°C 88% Calm Calm -- 29.77 in1008.1 mb - 0.00 in0.0 mm 0.00 in0.0 mm
06:00 AM 51.3°F10.7°C 47.8°F8.8°C 88% Calm Calm -- 29.77 in1008.1 mb - 0.00 in0.0 mm 0.00 in0.0 mm
06:10 AM 51.6°F10.9°C 48.5°F9.2°C 89% Calm Calm -- 29.77 in1008.1 mb - 0.00 in0.0 mm 0.00 in0.0 mm
06:20 AM 52.1°F11.2°C 48.6°F9.2°C 88% Calm Calm -- 29.77 in1008.1 mb - 0.00 in0.0 mm 0.00 in0.0 mm
06:30 AM 53.0°F11.7°C 49.5°F9.7°C 88% Calm Calm -- 29.77 in1008.1 mb - 0.00 in0.0 mm 0.00 in0.0 mm
06:40 AM 53.8°F12.1°C 49.4°F9.7°C 85% Calm Calm -- 29.77 in1008.1 mb - 0.00 in0.0 mm 0.00 in0.0 mm
06:50 AM 54.3°F12.4°C 48.9°F9.4°C 82% Calm Calm -- 29.77 in1008.1 mb - 0.00 in0.0 mm 0.00 in0.0 mm
07:00 AM 54.7°F12.6°C 48.6°F9.2°C 80% Calm Calm -- 29.77 in1008.1 mb - 0.00 in0.0 mm 0.00 in0.0 mm
07:10 AM 54.8°F12.7°C 48.8°F9.3°C 80% Calm Calm -- 29.77 in1008.1 mb - 0.00 in0.0 mm 0.00 in0.0 mm
07:20 AM 55.6°F13.1°C 49.5°F9.7°C 80% Calm Calm -- 29.77 in1008.1 mb - 0.00 in0.0 mm 0.00 in0.0 mm
07:30 AM 58.4°F14.7°C 51.2°F10.7°C 77% Calm Calm -- 29.77 in1008.1 mb - 0.00 in0.0 mm 0.00 in0.0 mm
07:40 AM 59.0°F15.0°C 49.6°F9.8°C 71% Calm Calm -- 29.77 in1008.1 mb - 0.00 in0.0 mm 0.00 in0.0 mm
07:50 AM 60.3°F15.7°C 49.7°F9.8°C 68% Calm Calm -- 29.77 in1008.1 mb - 0.00 in0.0 mm 0.00 in0.0 mm
08:00 AM 61.7°F16.5°C 49.4°F9.7°C 64% Calm Calm -- 29.77 in1008.1 mb - 0.00 in0.0 mm 0.00 in0.0 mm
08:10 AM 62.2°F16.8°C 49.9°F9.9°C 64% Calm Calm -- 29.77 in1008.1 mb - 0.00 in0.0 mm 0.00 in0.0 mm
08:20 AM 63.4°F17.4°C 48.8°F9.3°C 59% Calm Calm -- 29.77 in1008.1 mb - 0.00 in0.0 mm 0.00 in0.0 mm
08:30 AM 64.4°F18.0°C 48.8°F9.3°C 57% Calm Calm -- 29.77 in1008.1 mb - 0.00 in0.0 mm 0.00 in0.0 mm
08:40 AM 65.4°F18.6°C 48.8°F9.3°C 55% Calm Calm -- 29.77 in1008.1 mb - 0.00 in0.0 mm 0.00 in0.0 mm
08:50 AM 66.1°F18.9°C 47.9°F8.8°C 52% Calm Calm -- 29.77 in1008.1 mb - 0.00 in0.0 mm 0.00 in0.0 mm
09:00 AM 66.9°F19.4°C 48.2°F9.0°C 51% Calm Calm -- 29.77 in1008.1 mb - 0.00 in0.0 mm 0.00 in0.0 mm
09:10 AM 67.0°F19.4°C 47.2°F8.4°C 49% Calm Calm -- 29.77 in1008.1 mb - 0.00 in0.0 mm 0.00 in0.0 mm
09:20 AM 68.9°F20.5°C 47.8°F8.8°C 47% Calm Calm -- 29.77 in1008.1 mb - 0.00 in0.0 mm 0.00 in0.0 mm
09:30 AM 68.2°F20.1°C 46.6°F8.1°C 46% Calm Calm -- 29.77 in1008.1 mb - 0.00 in0.0 mm 0.00 in0.0 mm
09:40 AM 69.1°F20.6°C 47.4°F8.6°C 46% Calm Calm -- 29.77 in1008.1 mb - 0.00 in0.0 mm 0.00 in0.0 mm
09:50 AM 69.8°F21.0°C 47.5°F8.6°C 45% Calm Calm -- 29.77 in1008.1 mb - 0.00 in0.0 mm 0.00 in0.0 mm
10:00 AM 70.2°F21.2°C 47.2°F8.4°C 44% Calm Calm -- 29.77 in1008.1 mb - 0.00 in0.0 mm 0.00 in0.0 mm
10:10 AM 71.6°F22.0°C 47.9°F8.8°C 43% Calm Calm -- 29.77 in1008.1 mb - 0.00 in0.0 mm 0.00 in0.0 mm
10:20 AM 71.8°F22.1°C 48.1°F8.9°C 43% Calm Calm -- 29.77 in1008.1 mb - 0.00 in0.0 mm 0.00 in0.0 mm
10:30 AM 71.6°F22.0°C 47.3°F8.5°C 42% Calm Calm -- 29.77 in1008.1 mb - 0.00 in0.0 mm 0.00 in0.0 mm
10:40 AM 72.5°F22.5°C 48.1°F8.9°C 42% Calm Calm -- 29.77 in1008.1 mb - 0.00 in0.0 mm 0.00 in0.0 mm
10:50 AM 73.2°F22.9°C 48.7°F9.3°C 42% Calm Calm -- 29.77 in1008.1 mb - 0.00 in0.0 mm 0.00 in0.0 mm
11:00 AM 71.9°F22.2°C 46.9°F8.3°C 41% Calm Calm -- 29.77 in1008.1 mb - 0.00 in0.0 mm 0.00 in0.0 mm
11:10 AM 71.7°F22.1°C 46.8°F8.2°C 41% Calm Calm -- 29.77 in1008.1 mb - 0.00 in0.0 mm 0.00 in0.0 mm
11:20 AM 72.8°F22.7°C 47.8°F8.8°C 41% Calm Calm -- 29.77 in1008.1 mb - 0.00 in0.0 mm 0.00 in0.0 mm
11:30 AM 72.7°F22.6°C 47.0°F8.3°C 40% Calm Calm -- 29.77 in1008.1 mb - 0.00 in0.0 mm 0.00 in0.0 mm
11:40 AM 73.6°F23.1°C 46.4°F8.0°C 38% Calm Calm -- 29.77 in1008.1 mb - 0.00 in0.0 mm 0.00 in0.0 mm
11:50 AM 74.6°F23.7°C 47.3°F8.5°C 38% Calm Calm -- 29.80 in1009.1 mb - 0.00 in0.0 mm 0.00 in0.0 mm
12:00 PM 75.2°F24.0°C 48.5°F9.2°C 39% Calm Calm -- 29.77 in1008.1 mb - 0.00 in0.0 mm 0.00 in0.0 mm
12:10 PM 75.6°F24.2°C 47.5°F8.6°C 37% Calm Calm -- 29.77 in1008.1 mb - 0.00 in0.0 mm 0.00 in0.0 mm
12:20 PM 74.8°F23.8°C 46.8°F8.2°C 37% Calm Calm -- 29.77 in1008.1 mb - 0.00 in0.0 mm 0.00 in0.0 mm
12:30 PM 74.0°F23.3°C 46.1°F7.8°C 37% Calm Calm -- 29.77 in1008.1 mb - 0.00 in0.0 mm 0.00 in0.0 mm
12:40 PM 72.7°F22.6°C 46.3°F7.9°C 39% Calm Calm -- 29.77 in1008.1 mb - 0.00 in0.0 mm 0.00 in0.0 mm
12:50 PM 71.4°F21.9°C 45.8°F7.7°C 40% Calm Calm -- 29.77 in1008.1 mb - 0.00 in0.0 mm 0.00 in0.0 mm
01:00 PM 71.0°F21.7°C 46.8°F8.2°C 42% Calm Calm -- 29.77 in1008.1 mb - 0.00 in0.0 mm 0.00 in0.0 mm
01:10 PM 70.9°F21.6°C 46.6°F8.1°C 42% Calm Calm -- 29.77 in1008.1 mb - 0.00 in0.0 mm 0.00 in0.0 mm
01:20 PM 71.1°F21.7°C 47.4°F8.6°C 43% Calm Calm -- 29.77 in1008.1 mb - 0.00 in0.0 mm 0.00 in0.0 mm
01:30 PM 70.2°F21.2°C 46.7°F8.2°C 43% Calm Calm -- 29.77 in1008.1 mb - 0.00 in0.0 mm 0.00 in0.0 mm
01:40 PM 69.0°F20.6°C 46.7°F8.2°C 45% Calm Calm -- 29.77 in1008.1 mb - 0.00 in0.0 mm 0.00 in0.0 mm
01:50 PM 69.1°F20.6°C 47.4°F8.6°C 46% Calm Calm -- 29.77 in1008.1 mb - 0.00 in0.0 mm 0.00 in0.0 mm
02:00 PM 68.2°F20.1°C 48.8°F9.3°C 50% Calm Calm -- 29.77 in1008.1 mb - 0.00 in0.0 mm 0.00 in0.0 mm
02:10 PM 68.4°F20.2°C 49.5°F9.7°C 51% Calm Calm -- 29.77 in1008.1 mb - 0.00 in0.0 mm 0.00 in0.0 mm
02:20 PM 68.5°F20.3°C 49.2°F9.6°C 50% Calm Calm -- 29.77 in1008.1 mb - 0.00 in0.0 mm 0.00 in0.0 mm
02:30 PM 68.5°F20.3°C 48.1°F8.9°C 48% Calm Calm -- 29.77 in1008.1 mb - 0.00 in0.0 mm 0.00 in0.0 mm
02:40 PM 68.0°F20.0°C 47.6°F8.7°C 48% Calm Calm -- 29.77 in1008.1 mb - 0.00 in0.0 mm 0.00 in0.0 mm
02:50 PM 67.5°F19.7°C 47.6°F8.7°C 49% Calm Calm -- 29.77 in1008.1 mb - 0.00 in0.0 mm 0.00 in0.0 mm
03:00 PM 66.4°F19.1°C 48.8°F9.3°C 53% 10.4 mph N16.7 kmh N 11.5 mph18.5 kmh 29.80 in1009.1 mb - 0.00 in0.0 mm 0.00 in0.0 mm
03:10 PM 62.3°F16.8°C 51.6°F10.9°C 68% 9.2 mph NW14.8 kmh NW 12.7 mph20.4 kmh 29.80 in1009.1 mb - 0.00 in0.0 mm 0.00 in0.0 mm
03:20 PM 60.3°F15.7°C 52.0°F11.1°C 74% 9.2 mph NNW14.8 kmh NNW 12.7 mph20.4 kmh 29.80 in1009.1 mb - 0.00 in0.0 mm 0.00 in0.0 mm
03:30 PM 58.4°F14.7°C 52.3°F11.3°C 80% 9.2 mph NW14.8 kmh NW 13.8 mph22.2 kmh 29.82 in1009.8 mb - 0.05 in1.3 mm 0.05 in1.3 mm
03:40 PM 57.6°F14.2°C 54.6°F12.6°C 90% 9.2 mph NNW14.8 kmh NNW 12.7 mph20.4 kmh 29.82 in1009.8 mb - 0.09 in2.3 mm 0.09 in2.3 mm
03:50 PM 57.9°F14.4°C 56.2°F13.4°C 94% 6.9 mph N11.1 kmh N 8.1 mph13.0 kmh 29.82 in1009.8 mb - 0.09 in2.3 mm 0.09 in2.3 mm
04:00 PM 57.9°F14.4°C 56.5°F13.6°C 95% 3.5 mph N5.6 kmh N 4.6 mph7.4 kmh 29.82 in1009.8 mb - 0.09 in2.3 mm 0.09 in2.3 mm
04:10 PM 57.6°F14.2°C 56.5°F13.6°C 96% 4.6 mph NNW7.4 kmh NNW 4.6 mph7.4 kmh 29.82 in1009.8 mb - 0.09 in2.3 mm 0.09 in2.3 mm
04:20 PM 57.6°F14.2°C 56.4°F13.6°C 96% 4.6 mph N7.4 kmh N 5.8 mph9.3 kmh 29.82 in1009.8 mb - 0.09 in2.3 mm 0.09 in2.3 mm
04:30 PM 57.2°F14.0°C 56.1°F13.4°C 96% 5.8 mph N9.3 kmh N 8.1 mph13.0 kmh 29.82 in1009.8 mb - 0.05 in1.3 mm 0.09 in2.3 mm
04:40 PM 56.8°F13.8°C 55.7°F13.2°C 96% 6.9 mph NNW11.1 kmh NNW 10.4 mph16.7 kmh 29.82 in1009.8 mb - 0.05 in1.3 mm 0.14 in3.6 mm
04:50 PM 56.3°F13.5°C 54.9°F12.7°C 95% 5.8 mph N9.3 kmh N 8.1 mph13.0 kmh 29.82 in1009.8 mb - 0.05 in1.3 mm 0.14 in3.6 mm
05:00 PM 56.3°F13.5°C 55.2°F12.9°C 96% 1.2 mph NNW1.9 kmh NNW 3.5 mph5.6 kmh 29.82 in1009.8 mb - 0.05 in1.3 mm 0.14 in3.6 mm
05:10 PM 56.3°F13.5°C 55.2°F12.9°C 96% 3.5 mph NW5.6 kmh NW 3.5 mph5.6 kmh 29.82 in1009.8 mb - 0.05 in1.3 mm 0.14 in3.6 mm
05:20 PM 56.3°F13.5°C 55.2°F12.9°C 96% 3.5 mph NNW5.6 kmh NNW 6.9 mph11.1 kmh 29.82 in1009.8 mb - 0.05 in1.3 mm 0.14 in3.6 mm
05:30 PM 56.7°F13.7°C 55.5°F13.1°C 96% 6.9 mph NNW11.1 kmh NNW 10.4 mph16.7 kmh 29.82 in1009.8 mb - 0.05 in1.3 mm 0.14 in3.6 mm
05:40 PM 57.8°F14.3°C 56.7°F13.7°C 96% 4.6 mph NNW7.4 kmh NNW 6.9 mph11.1 kmh 29.82 in1009.8 mb - 0.00 in0.0 mm 0.14 in3.6 mm
05:50 PM 59.5°F15.3°C 57.7°F14.3°C 94% 5.8 mph NNW9.3 kmh NNW 8.1 mph13.0 kmh 29.82 in1009.8 mb - 0.00 in0.0 mm 0.14 in3.6 mm
06:00 PM 60.1°F15.6°C 57.8°F14.3°C 92% 4.6 mph N7.4 kmh N 9.2 mph14.8 kmh 29.82 in1009.8 mb - 0.00 in0.0 mm 0.14 in3.6 mm
06:10 PM 60.2°F15.7°C 57.2°F14.0°C 90% 5.8 mph N9.3 kmh N 9.2 mph14.8 kmh 29.82 in1009.8 mb - 0.00 in0.0 mm 0.14 in3.6 mm
06:20 PM 59.4°F15.2°C 54.9°F12.7°C 85% 5.8 mph N9.3 kmh N 5.8 mph9.3 kmh 29.80 in1009.1 mb - 0.00 in0.0 mm 0.14 in3.6 mm
06:30 PM 58.6°F14.8°C 53.8°F12.1°C 84% 8.1 mph NNW13.0 kmh NNW 11.5 mph18.5 kmh 29.82 in1009.8 mb - 0.00 in0.0 mm 0.14 in3.6 mm
06:40 PM 58.6°F14.8°C 53.1°F11.7°C 82% 5.8 mph N9.3 kmh N 10.4 mph16.7 kmh 29.82 in1009.8 mb - 0.00 in0.0 mm 0.14 in3.6 mm
06:50 PM 58.8°F14.9°C 53.0°F11.7°C 81% 5.8 mph N9.3 kmh N 8.1 mph13.0 kmh 29.82 in1009.8 mb - 0.00 in0.0 mm 0.14 in3.6 mm
07:00 PM 58.8°F14.9°C 52.7°F11.5°C 80% 5.8 mph N9.3 kmh N 9.2 mph14.8 kmh 29.82 in1009.8 mb - 0.00 in0.0 mm 0.14 in3.6 mm
07:10 PM 58.8°F14.9°C 51.6°F10.9°C 77% 4.6 mph N7.4 kmh N 5.8 mph9.3 kmh 29.82 in1009.8 mb - 0.00 in0.0 mm 0.14 in3.6 mm
07:20 PM 58.7°F14.8°C 51.5°F10.8°C 77% 3.5 mph N5.6 kmh N 5.8 mph9.3 kmh 29.82 in1009.8 mb - 0.00 in0.0 mm 0.14 in3.6 mm
07:30 PM 58.3°F14.6°C 51.8°F11.0°C 79% 6.9 mph NW11.1 kmh NW 8.1 mph13.0 kmh 29.82 in1009.8 mb - 0.00 in0.0 mm 0.14 in3.6 mm
07:40 PM 58.5°F14.7°C 51.0°F10.6°C 76% 4.6 mph NNW7.4 kmh NNW 6.9 mph11.1 kmh 29.82 in1009.8 mb - 0.00 in0.0 mm 0.14 in3.6 mm
07:50 PM 58.1°F14.5°C 50.9°F10.5°C 77% 3.5 mph NNW5.6 kmh NNW 5.8 mph9.3 kmh 29.82 in1009.8 mb - 0.00 in0.0 mm 0.14 in3.6 mm
08:00 PM 57.6°F14.2°C 51.1°F10.6°C 79% 3.5 mph N5.6 kmh N 5.8 mph9.3 kmh 29.82 in1009.8 mb - 0.00 in0.0 mm 0.14 in3.6 mm
08:10 PM 57.2°F14.0°C 51.1°F10.6°C 80% 3.5 mph N5.6 kmh N 4.6 mph7.4 kmh 29.82 in1009.8 mb - 0.00 in0.0 mm 0.14 in3.6 mm
08:20 PM 57.0°F13.9°C 50.9°F10.5°C 80% 5.8 mph NNW9.3 kmh NNW 8.1 mph13.0 kmh 29.82 in1009.8 mb - 0.00 in0.0 mm 0.14 in3.6 mm
08:50 PM 56.0°F13.3°C 49.6°F9.8°C 79% 3.5 mph NW5.6 kmh NW 4.6 mph7.4 kmh 29.82 in1009.8 mb - 0.00 in0.0 mm 0.14 in3.6 mm
09:00 PM 55.0°F12.8°C 49.3°F9.6°C 81% 2.3 mph NW3.7 kmh NW 3.5 mph5.6 kmh 29.82 in1009.8 mb - 0.00 in0.0 mm 0.14 in3.6 mm
09:10 PM 54.0°F12.2°C 49.0°F9.4°C 83% 2.3 mph NNW3.7 kmh NNW 5.8 mph9.3 kmh 29.82 in1009.8 mb - 0.00 in0.0 mm 0.14 in3.6 mm
09:20 PM 53.3°F11.8°C 49.2°F9.6°C 86% Calm Calm -- 29.82 in1009.8 mb - 0.00 in0.0 mm 0.14 in3.6 mm
09:30 PM 53.1°F11.7°C 49.9°F9.9°C 89% Calm Calm 4.6 mph7.4 kmh 29.86 in1011.2 mb - 0.00 in0.0 mm 0.14 in3.6 mm
09:40 PM 52.7°F11.5°C 49.8°F9.9°C 90% 1.2 mph SSE1.9 kmh SSE 2.3 mph3.7 kmh 29.86 in1011.2 mb - 0.00 in0.0 mm 0.14 in3.6 mm
09:50 PM 52.5°F11.4°C 50.3°F10.2°C 92% Calm Calm -- 29.86 in1011.2 mb - 0.00 in0.0 mm 0.14 in3.6 mm
10:00 PM 52.0°F11.1°C 49.7°F9.8°C 92% 3.5 mph SE5.6 kmh SE 4.6 mph7.4 kmh 29.86 in1011.2 mb - 0.00 in0.0 mm 0.14 in3.6 mm
10:10 PM 51.5°F10.8°C 49.5°F9.7°C 93% Calm Calm -- 29.86 in1011.2 mb - 0.00 in0.0 mm 0.14 in3.6 mm
10:20 PM 51.1°F10.6°C 49.4°F9.7°C 94% Calm Calm -- 29.86 in1011.2 mb - 0.00 in0.0 mm 0.14 in3.6 mm
10:30 PM 51.1°F10.6°C 49.4°F9.7°C 94% Calm Calm -- 29.86 in1011.2 mb - 0.00 in0.0 mm 0.14 in3.6 mm
10:40 PM 50.7°F10.4°C 49.3°F9.6°C 95% Calm Calm -- 29.86 in1011.2 mb - 0.00 in0.0 mm 0.14 in3.6 mm
10:50 PM 50.5°F10.3°C 49.2°F9.6°C 95% Calm Calm -- 29.86 in1011.2 mb - 0.00 in0.0 mm 0.14 in3.6 mm
11:00 PM 50.0°F10.0°C 48.6°F9.2°C 95% Calm Calm -- 29.86 in1011.2 mb - 0.00 in0.0 mm 0.85 in21.6 mm
11:10 PM 49.5°F9.7°C 48.4°F9.1°C 96% Calm Calm -- 29.86 in1011.2 mb - 0.00 in0.0 mm 0.85 in21.6 mm
11:20 PM 49.1°F9.5°C 48.0°F8.9°C 96% Calm Calm -- 29.86 in1011.2 mb - 0.00 in0.0 mm 0.85 in21.6 mm
11:30 PM 49.1°F9.5°C 48.0°F8.9°C 96% Calm Calm -- 29.86 in1011.2 mb - 0.00 in0.0 mm 0.85 in21.6 mm
11:40 PM 48.9°F9.4°C 48.1°F8.9°C 97% Calm Calm -- 29.86 in1011.2 mb - 0.00 in0.0 mm 0.85 in21.6 mm
11:50 PM 48.9°F9.4°C 48.1°F8.9°C 97% Calm Calm -- 29.86 in1011.2 mb - 0.00 in0.0 mm 0.85 in21.6 mm